Time;durP1;ratioP1;P1;durP2;ratioP2;P2;SDS_P1;SDS_P2;PMS_P1;PMS_P2;Temp;Humidity;BMP_temperature;BMP_pressure;BME280_temperature;BME280_humidity;BME280_pressure;Samples;Min_cycle;Max_cycle;Signal;HPM_P1;HPM_P2
2021/04/17 00:00:41;;;;;;;13.30;11.50;;;-1.50;1.40;;;-0.57;92.42;95803.48;616006;229;25795;-72
2021/04/17 00:03:10;;;;;;;14.68;13.00;;;-1.60;1.40;;;-0.49;90.41;95805.38;623348;225;32581;-72
2021/04/17 00:05:39;;;;;;;15.15;13.65;;;-1.50;1.40;;;-0.54;91.98;95802.96;618182;226;32257;-71
2021/04/17 00:08:08;;;;;;;16.95;14.40;;;-1.50;1.40;;;-0.47;92.29;95800.91;623262;225;31982;-71
2021/04/17 00:10:37;;;;;;;15.48;13.88;;;-1.40;1.40;;;-0.39;91.40;95796.97;621776;225;32501;-71
2021/04/17 00:13:07;;;;;;;12.60;11.37;;;-1.40;1.40;;;-0.41;92.60;95796.20;628255;225;23808;-71
2021/04/17 00:15:36;;;;;;;15.02;13.52;;;-1.40;1.40;;;-0.39;91.52;95796.05;620078;226;32498;-72
2021/04/17 00:18:05;;;;;;;12.73;11.00;;;-1.50;1.40;;;-0.36;92.23;95793.28;612665;232;23843;-70
2021/04/17 00:20:34;;;;;;;16.40;14.70;;;-1.50;1.40;;;-0.24;91.26;95793.20;609718;229;43073;-70
2021/04/17 00:23:03;;;;;;;13.10;11.73;;;-1.40;1.40;;;-0.27;92.11;95789.58;616427;229;23571;-70
2021/04/17 00:25:32;;;;;;;14.80;13.30;;;-1.40;1.40;;;-0.20;91.44;95788.09;610736;229;32973;-70
2021/04/17 00:28:01;;;;;;;12.43;11.13;;;-1.40;1.40;;;-0.18;90.58;95791.21;617101;229;23557;-70
2021/04/17 00:30:30;;;;;;;15.90;14.40;;;-1.40;1.40;;;-0.06;90.09;95784.52;610763;229;32242;-71
2021/04/17 00:32:59;;;;;;;15.32;13.90;;;-1.30;1.40;;;-0.01;89.67;95783.27;611222;229;32187;-71
2021/04/17 00:35:55;;;;;;;14.98;13.57;;;-1.30;1.40;;;-0.01;89.45;95781.02;645195;212;33584;-71
2021/04/17 00:38:25;;;;;;;14.40;12.90;;;-1.30;1.40;;;0.03;89.97;95777.69;635286;221;33920;-72
2021/04/17 00:40:54;;;;;;;14.20;12.80;;;-1.20;1.40;;;-0.01;91.18;95776.33;640130;220;24560;-72
2021/04/17 00:43:23;;;;;;;12.93;11.50;;;-1.10;1.40;;;-0.07;91.75;95768.89;641321;221;30854;-72
2021/04/17 00:45:52;;;;;;;13.23;11.53;;;-1.00;1.40;;;-0.03;91.90;95765.88;641536;221;24649;-72
2021/04/17 00:48:21;;;;;;;12.90;11.57;;;-1.00;1.40;;;-0.03;91.74;95769.52;640634;221;24534;-72
2021/04/17 00:50:50;;;;;;;14.13;12.30;;;-1.00;1.40;;;-0.09;92.27;95764.58;648430;216;31615;-72
2021/04/17 00:53:19;;;;;;;15.35;13.75;;;-0.90;1.40;;;-0.02;92.09;95758.88;634828;221;32028;-72
2021/04/17 00:55:48;;;;;;;13.33;12.03;;;-0.90;1.40;;;0.15;90.55;95762.24;652060;218;23540;-72
2021/04/17 00:58:17;;;;;;;12.20;11.00;;;-0.90;1.40;;;0.16;90.28;95757.46;654413;217;24461;-73
2021/04/17 01:00:46;;;;;;;11.00;10.00;;;-1.00;1.40;;;0.23;89.03;95752.37;654223;217;24541;-73
2021/04/17 01:03:20;;;;;;;13.43;12.03;;;-1.00;1.40;;;0.17;89.44;95754.08;653941;217;24456;-72
2021/04/17 01:05:49;;;;;;;10.10;9.13;;;-1.00;1.40;;;0.11;90.98;95752.40;640830;220;24534;-72
2021/04/17 01:08:20;;;;;;;12.90;11.20;;;-1.00;1.40;;;0.07;91.84;95751.72;667762;211;24436;-72
2021/04/17 01:10:49;;;;;;;14.07;10.90;;;-1.00;1.40;;;0.02;92.26;95749.41;667333;211;26011;-72
2021/04/17 01:13:18;;;;;;;12.00;10.80;;;-1.00;1.40;;;-0.01;91.80;95747.87;668842;211;25857;-71
2021/04/17 01:15:47;;;;;;;13.87;10.70;;;-1.00;1.40;;;-0.06;91.73;95749.08;665378;211;24522;-72
2021/04/17 01:18:17;;;;;;;13.80;12.50;;;-1.10;1.40;;;0.00;91.36;95745.66;649202;215;31733;-71
2021/04/17 01:20:46;;;;;;;12.50;11.30;;;-1.10;1.40;;;0.02;92.05;95746.95;640942;221;25627;-71
2021/04/17 01:23:39;;;;;;;12.57;11.37;;;-1.10;1.40;;;0.02;90.87;95747.02;654984;215;28736;-71
2021/04/17 01:26:08;;;;;;;14.90;10.63;;;-1.10;1.40;;;0.01;91.04;95745.08;653647;215;25513;-72
2021/04/17 01:28:39;;;;;;;11.23;10.03;;;-1.20;1.40;;;-0.02;91.33;95748.07;655717;216;24460;-72
2021/04/17 01:31:08;;;;;;;13.03;11.60;;;-1.20;1.40;;;-0.04;91.50;95741.34;655260;216;24480;-71
2021/04/17 01:38:26;;;;;;;14.50;13.10;;;-1.20;1.40;;;-0.02;89.75;95741.04;618397;226;31973;-72
2021/04/17 01:40:56;;;;;;;14.03;10.97;;;-1.20;1.40;;;-0.15;92.07;95741.41;615755;230;24663;-72
2021/04/17 01:43:25;;;;;;;13.02;11.75;;;-1.20;1.40;;;-0.21;93.42;95740.28;610711;230;33179;-72
2021/04/17 01:45:54;;;;;;;13.75;12.35;;;-1.10;1.40;;;-0.23;94.28;95740.19;609530;230;32935;-73
2021/04/17 01:48:23;;;;;;;14.80;13.37;;;-1.10;1.40;;;-0.10;93.38;95739.46;610260;230;32402;-72
2021/04/17 01:50:52;;;;;;;15.20;13.70;;;-1.20;1.40;;;-0.15;94.76;95734.86;610151;229;32677;-72
2021/04/17 01:53:22;;;;;;;15.02;13.60;;;-1.10;1.40;;;-0.12;94.63;95737.20;624278;225;32605;-73
2021/04/17 01:55:51;;;;;;;14.10;12.70;;;-1.00;1.40;;;0.00;94.28;95734.62;609251;226;32274;-73
2021/04/17 01:58:21;;;;;;;14.57;13.27;;;-1.10;1.40;;;-0.09;94.22;95734.30;626841;225;24584;-72
2021/04/17 02:00:51;;;;;;;13.70;12.40;;;-1.10;1.40;;;-0.05;93.93;95729.61;621409;225;32143;-72
2021/04/17 02:03:20;;;;;;;13.83;12.50;;;-1.10;1.40;;;0.04;93.09;95730.70;609972;230;43347;-73
2021/04/17 02:05:49;;;;;;;11.37;10.23;;;-1.10;1.40;;;0.04;92.03;95729.80;615290;229;24944;-72
2021/04/17 02:08:18;;;;;;;13.13;11.60;;;-1.10;1.40;;;0.00;92.47;95724.70;615920;229;25723;-72
2021/04/17 02:10:47;;;;;;;14.40;13.00;;;-1.10;1.40;;;-0.02;94.00;95727.75;620728;225;32080;-73
2021/04/17 02:13:17;;;;;;;14.87;11.40;;;-1.00;1.40;;;-0.04;95.24;95728.88;614917;230;25635;-73
2021/04/17 02:15:46;;;;;;;11.90;10.47;;;-1.00;1.40;;;-0.09;96.03;95728.67;621725;228;26731;-73
2021/04/17 02:18:25;;;;;;;12.60;10.63;;;-1.00;1.40;;;-0.16;96.11;95725.79;605009;234;24739;-73
2021/04/17 02:20:59;;;;;;;11.87;10.80;;;-1.00;1.40;;;-0.16;96.09;95728.66;603170;234;24669;-73
2021/04/17 02:23:28;;;;;;;11.50;10.30;;;-1.00;1.40;;;-0.12;95.52;95721.12;616156;230;24600;-73
2021/04/17 02:25:57;;;;;;;12.00;10.90;;;-1.00;1.40;;;-0.09;95.19;95720.56;608024;234;24803;-73
2021/04/17 02:28:27;;;;;;;14.50;12.03;;;-1.00;1.40;;;-0.07;95.51;95717.67;614985;229;24608;-73
2021/04/17 02:30:56;;;;;;;14.80;13.40;;;-1.00;1.40;;;-0.09;95.47;95717.94;599691;233;32384;-73
2021/04/17 02:35:55;;;;;;;13.55;12.25;;;-1.00;1.40;;;0.17;92.44;95717.50;645594;212;31652;-74
2021/04/17 02:38:24;;;;;;;13.53;12.23;;;-1.00;1.40;;;0.15;92.19;95719.77;641842;220;23608;-72
2021/04/17 02:40:53;;;;;;;13.37;10.30;;;-1.00;1.40;;;0.07;92.65;95724.09;640505;220;24578;-72
2021/04/17 02:43:22;;;;;;;13.37;11.20;;;-1.10;1.40;;;0.09;92.87;95716.53;638661;221;24554;-74
2021/04/17 02:45:51;;;;;;;12.00;10.70;;;-1.10;1.40;;;0.14;91.58;95715.20;647891;220;24539;-73
2021/04/17 02:48:20;;;;;;;12.07;10.80;;;-1.10;1.40;;;0.00;92.52;95718.45;672300;211;24415;-73
2021/04/17 02:50:50;;;;;;;10.93;9.37;;;-1.20;1.40;;;-0.07;93.05;95722.20;667549;211;24455;-72
2021/04/17 02:53:19;;;;;;;13.98;12.48;;;-1.20;1.40;;;-0.11;93.22;95710.39;649724;216;31622;-73
2021/04/17 02:55:48;;;;;;;12.20;11.10;;;-1.30;1.40;;;-0.16;92.98;95710.45;654251;216;23496;-73
2021/04/17 02:58:17;;;;;;;13.90;12.23;;;-1.40;1.40;;;-0.25;94.98;95709.44;640581;221;33139;-73
2021/04/17 03:00:46;;;;;;;12.17;10.97;;;-1.40;1.40;;;-0.23;95.79;95705.06;670370;211;24474;-73
2021/04/17 03:03:15;;;;;;;12.17;9.93;;;-1.30;1.40;;;-0.16;96.06;95704.21;669546;211;24473;-73
2021/04/17 03:05:44;;;;;;;15.40;13.23;;;-1.20;1.40;;;-0.08;95.07;95707.16;653794;217;24498;-74
2021/04/17 03:08:13;;;;;;;15.35;13.77;;;-1.10;1.40;;;-0.04;94.15;95698.03;636282;221;31769;-74
2021/04/17 03:10:42;;;;;;;13.17;11.87;;;-1.10;1.40;;;-0.07;95.60;95698.77;669672;211;23407;-74
2021/04/17 03:13:11;;;;;;;13.87;12.53;;;-1.10;1.40;;;-0.05;96.25;95697.84;670576;211;24407;-73
2021/04/17 03:15:41;;;;;;;11.80;10.70;;;-1.00;1.40;;;-0.02;96.23;95697.33;666093;211;24511;-73
2021/04/17 03:18:10;;;;;;;13.73;12.03;;;-1.00;1.40;;;0.08;95.51;95697.58;657398;216;24566;-73
2021/04/17 03:20:39;;;;;;;13.43;11.50;;;-1.00;1.40;;;0.07;95.94;95697.45;658245;215;24479;-72
2021/04/17 03:23:08;;;;;;;14.20;12.48;;;-1.00;1.40;;;0.03;96.64;95696.63;650961;215;31750;-74
2021/04/17 03:25:37;;;;;;;12.33;11.13;;;-0.90;1.40;;;0.00;97.22;95693.36;643566;220;24578;-73
2021/04/17 03:28:06;;;;;;;12.63;11.43;;;-0.90;1.40;;;0.14;97.09;95696.66;635011;225;24565;-73
2021/04/17 03:35:55;;;;;;;14.68;13.18;;;-0.90;1.40;;;0.14;95.78;95686.74;646167;213;31647;-74
2021/04/17 03:38:24;;;;;;;12.70;11.40;;;-0.80;1.40;;;0.10;96.49;95687.60;639905;221;24575;-73
2021/04/17 03:40:53;;;;;;;12.53;11.33;;;-0.80;1.40;;;0.13;96.90;95686.45;640701;221;26634;-73
2021/04/17 03:43:22;;;;;;;14.40;13.00;;;-0.80;1.40;;;0.15;96.34;95686.48;635723;221;31860;-74
2021/04/17 03:45:51;;;;;;;13.20;11.83;;;-0.80;1.40;;;0.26;96.05;95680.26;639843;220;23475;-74
2021/04/17 03:48:20;;;;;;;13.47;12.00;;;-0.80;1.40;;;0.33;95.48;95689.24;640920;221;24533;-73
2021/04/17 03:50:49;;;;;;;12.83;11.57;;;-0.80;1.40;;;0.26;95.64;95688.62;640993;221;24510;-72
2021/04/17 03:53:18;;;;;;;14.45;12.88;;;-0.80;1.40;;;0.23;95.89;95686.91;633742;221;31836;-73
2021/04/17 03:55:47;;;;;;;15.43;13.73;;;-0.80;1.40;;;0.43;94.30;95690.23;635107;221;31824;-72
2021/04/17 03:58:16;;;;;;;13.80;12.07;;;-0.80;1.40;;;0.42;94.19;95691.19;639018;221;24969;-73
2021/04/17 04:00:46;;;;;;;13.37;11.23;;;-0.80;1.40;;;0.56;93.02;95692.88;638988;221;24593;-74
2021/04/17 04:03:15;;;;;;;15.80;13.30;;;-0.70;1.40;;;0.71;92.10;95693.23;640413;221;29831;-73
2021/04/17 04:05:44;;;;;;;15.00;10.83;;;-0.60;1.40;;;0.62;93.10;95699.94;639897;221;24510;-73
2021/04/17 04:08:13;;;;;;;14.00;12.57;;;-0.60;1.40;;;0.68;91.69;95698.77;639262;221;24591;-74
2021/04/17 04:10:42;;;;;;;13.60;11.87;;;-0.60;1.40;;;0.49;93.37;95696.92;639865;220;24548;-73
2021/04/17 04:13:11;;;;;;;13.80;11.40;;;-0.70;1.40;;;0.36;95.44;95706.42;641084;221;24530;-73
2021/04/17 04:15:40;;;;;;;16.40;14.18;;;-0.70;1.40;;;0.44;95.61;95708.27;633645;220;31983;-73
2021/04/17 04:18:09;;;;;;;16.67;14.98;;;-0.70;1.40;;;0.56;93.94;95708.56;634671;220;32226;-73
2021/04/17 04:20:38;;;;;;;13.23;11.80;;;-0.70;1.40;;;0.58;93.80;95707.06;641107;222;23463;-73
2021/04/17 04:23:08;;;;;;;12.47;11.23;;;-0.80;1.40;;;0.56;94.10;95711.23;640204;220;24578;-73
2021/04/17 04:25:37;;;;;;;14.07;11.87;;;-0.70;1.40;;;0.59;95.21;95709.05;640601;222;24513;-72
2021/04/17 04:28:06;;;;;;;12.87;11.50;;;-0.60;1.40;;;0.69;94.33;95710.10;639367;221;26732;-73
2021/04/17 04:30:35;;;;;;;14.27;12.23;;;-0.60;1.40;;;0.74;93.54;95710.63;655279;215;25118;-73
2021/04/17 04:35:51;;;;;;;16.95;14.25;;;-0.50;1.40;;;0.86;93.61;95705.03;645429;212;31632;-73
2021/04/17 04:38:20;;;;;;;15.00;13.43;;;-0.40;1.40;;;0.81;94.53;95705.89;640768;220;23504;-74
2021/04/17 04:40:49;;;;;;;15.27;13.75;;;-0.40;1.40;;;0.88;94.58;95708.53;634691;221;32097;-73
2021/04/17 04:43:18;;;;;;;13.90;12.50;;;-0.30;1.40;;;1.13;91.87;95708.91;640617;220;23493;-73
2021/04/17 04:45:47;;;;;;;17.90;13.33;;;-0.20;1.40;;;1.10;92.09;95712.34;640723;221;33076;-73
2021/04/17 04:48:16;;;;;;;14.60;12.63;;;-0.20;1.40;;;1.03;93.37;95727.33;640266;220;24631;-74
2021/04/17 04:50:45;;;;;;;13.80;12.30;;;-0.20;1.40;;;0.87;94.45;95720.48;638977;220;29885;-74
2021/04/17 04:53:14;;;;;;;16.80;12.80;;;-0.20;1.40;;;0.83;94.66;95728.13;640531;221;25615;-73
2021/04/17 04:55:43;;;;;;;12.60;10.70;;;-0.20;1.40;;;0.98;94.37;95725.41;640629;221;24851;-74
2021/04/17 04:58:13;;;;;;;14.50;13.00;;;-0.20;1.40;;;1.06;94.53;95726.74;639490;220;24992;-73
2021/04/17 05:00:42;;;;;;;14.47;12.63;;;-0.10;1.40;;;1.00;94.90;95725.61;639299;221;24879;-72
2021/04/17 05:03:11;;;;;;;13.83;11.67;;;-0.10;1.40;;;1.11;95.11;95724.91;640145;221;26699;-73
2021/04/17 05:05:40;;;;;;;16.60;14.73;;;0.00;1.40;;;1.09;95.31;95723.32;633491;221;31911;-73
2021/04/17 05:08:09;;;;;;;16.30;13.57;;;0.00;1.40;;;1.35;94.55;95725.78;639215;220;23503;-73
2021/04/17 05:10:38;;;;;;;16.67;13.57;;;0.10;1.40;;;1.51;93.41;95713.28;640069;221;24504;-74
2021/04/17 05:13:07;;;;;;;13.50;12.10;;;0.20;1.40;;;1.41;93.53;95721.72;640100;221;24499;-73
2021/04/17 05:15:36;;;;;;;14.67;12.90;;;0.20;1.40;;;1.30;94.42;95725.75;638487;221;24618;-73
2021/04/17 05:18:05;;;;;;;15.33;12.90;;;0.30;1.40;;;1.39;94.45;95728.89;628243;224;24599;-73
2021/04/17 05:20:35;;;;;;;14.70;12.33;;;0.30;1.40;;;1.49;93.69;95722.86;642360;220;25938;-74
2021/04/17 05:23:04;;;;;;;13.50;11.33;;;0.30;1.40;;;1.38;93.48;95728.13;628689;224;26705;-73
2021/04/17 05:25:33;;;;;;;17.83;13.62;;;0.30;1.40;;;1.58;93.38;95719.59;635248;220;31858;-73
2021/04/17 05:28:03;;;;;;;16.05;14.10;;;0.40;1.40;;;1.73;92.67;95719.86;623849;225;32186;-73
2021/04/17 05:30:31;;;;;;;16.40;13.80;;;0.50;1.40;;;1.85;92.33;95722.89;640335;221;23519;-73
2021/04/17 05:33:00;;;;;;;15.63;13.20;;;0.60;1.40;;;1.81;92.64;95727.95;641758;220;30076;-73
2021/04/17 05:35:54;;;;;;;17.05;14.48;;;0.60;1.40;;;1.89;92.52;95721.65;646737;212;31661;-73
2021/04/17 05:38:23;;;;;;;16.00;14.13;;;0.70;1.40;;;2.02;92.55;95718.59;640259;221;23531;-74
2021/04/17 05:40:52;;;;;;;16.10;14.13;;;0.70;1.40;;;2.07;92.05;95719.92;640439;221;29800;-73
2021/04/17 05:43:21;;;;;;;17.93;14.23;;;0.90;1.40;;;2.13;92.52;95718.52;640503;221;24510;-73
2021/04/17 05:45:50;;;;;;;14.83;13.13;;;0.90;1.40;;;2.27;92.34;95725.28;639521;221;25669;-72
2021/04/17 05:48:19;;;;;;;16.40;12.70;;;1.00;1.40;;;2.15;92.96;95721.53;641475;220;24487;-72
2021/04/17 05:50:48;;;;;;;18.23;14.95;;;1.00;1.40;;;2.02;94.36;95723.08;634491;221;32106;-72
2021/04/17 05:53:17;;;;;;;14.83;13.37;;;0.90;1.40;;;2.04;95.51;95723.75;639980;221;23442;-72
2021/04/17 05:55:46;;;;;;;17.47;14.40;;;1.00;1.40;;;2.31;95.12;95721.05;640786;221;28790;-73
2021/04/17 05:58:16;;;;;;;16.03;13.67;;;1.10;1.40;;;2.58;93.74;95726.49;640238;221;24559;-72
2021/04/17 06:00:45;;;;;;;18.57;13.93;;;1.30;1.40;;;2.61;93.37;95726.28;639469;221;24533;-73
2021/04/17 06:03:14;;;;;;;15.93;12.60;;;1.40;1.40;;;2.68;93.77;95733.50;639928;221;24492;-73
2021/04/17 06:05:43;;;;;;;17.53;14.20;;;1.50;1.40;;;2.94;93.32;95730.00;639910;221;24531;-73
2021/04/17 06:08:12;;;;;;;17.03;14.53;;;1.60;1.40;;;3.02;92.50;95738.95;638770;221;24539;-73
2021/04/17 06:10:41;;;;;;;20.65;17.90;;;1.80;1.40;;;3.36;91.05;95735.86;634487;221;31844;-73
2021/04/17 06:13:10;;;;;;;22.02;18.98;;;2.10;1.40;;;3.56;89.26;95738.77;634997;221;31903;-73
2021/04/17 06:15:39;;;;;;;17.40;14.60;;;2.10;1.40;;;3.86;88.63;95738.65;637450;221;23492;-73
2021/04/17 06:18:08;;;;;;;20.00;15.90;;;2.30;1.40;;;4.29;85.59;95741.16;627956;226;24570;-74
2021/04/17 06:20:38;;;;;;;18.20;15.20;;;2.50;1.40;;;4.30;86.12;95742.89;625835;226;24591;-73
2021/04/17 06:23:07;;;;;;;19.67;15.77;;;2.60;1.40;;;3.99;88.07;95743.61;628399;226;26944;-72
2021/04/17 06:25:36;;;;;;;20.30;15.20;;;2.50;1.40;;;4.09;87.05;95738.91;626086;225;24706;-73
2021/04/17 06:28:05;;;;;;;22.55;18.60;;;2.50;1.40;;;4.67;85.81;95743.60;622946;225;32234;-74
2021/04/17 06:35:51;;;;;;;24.02;20.45;;;2.90;1.40;;;4.88;84.99;95742.67;645945;216;31631;-72
2021/04/17 06:38:20;;;;;;;24.13;18.50;;;3.00;1.40;;;5.45;83.16;95743.30;640543;221;23512;-72
2021/04/17 06:40:50;;;;;;;21.53;16.43;;;3.40;1.40;;;5.44;82.38;95737.59;639961;221;26667;-73
2021/04/17 06:43:22;;;;;;;22.47;19.40;;;3.50;1.40;;;5.85;81.61;95737.19;635304;221;32152;-72
2021/04/17 06:45:52;;;;;;;23.40;19.92;;;3.50;1.40;;;-143.44;100.00;122422.95;635087;221;31758;-72
2021/04/17 06:48:22;;;;;;;19.97;16.00;;;3.40;1.40;;;-143.44;100.00;122422.95;643698;219;24532;-72
2021/04/17 06:53:26;;;;;;;22.85;19.25;;;3.80;1.40;;;;;;646219;216;31660;-72
2021/04/17 06:55:55;;;;;;;21.00;17.73;;;3.90;1.40;;;;;;640592;221;23481;-73
2021/04/17 06:58:23;;;;;;;20.80;16.70;;;3.70;1.40;;;;;;654632;215;24475;-73
2021/04/17 07:00:51;;;;;;;21.27;16.67;;;3.50;1.40;;;;;;669051;211;24416;-73
2021/04/17 07:03:19;;;;;;;24.87;17.57;;;4.00;1.40;;;;;;669886;211;24405;-74
2021/04/17 07:05:47;;;;;;;21.47;15.97;;;3.90;1.40;;;;;;667375;211;24406;-73
2021/04/17 07:08:15;;;;;;;20.53;15.80;;;4.00;1.40;;;;;;641884;220;24483;-74
2021/04/17 07:10:43;;;;;;;21.97;15.33;;;4.00;1.40;;;;;;641135;220;24566;-73
2021/04/17 07:13:12;;;;;;;19.77;16.50;;;3.90;1.40;;;;;;667937;211;24406;-73
2021/04/17 07:15:40;;;;;;;18.30;16.37;;;4.00;1.40;;;;;;666995;211;24467;-73
2021/04/17 07:18:20;;;;;;;21.27;16.07;;;3.70;1.40;;;;;;655209;215;24461;-73
2021/04/17 07:20:48;;;;;;;21.93;18.00;;;3.60;1.40;;;;;;639463;223;29806;-73
2021/04/17 07:23:38;;;;;;;27.77;19.27;;;3.70;1.40;;;;;;641132;223;24473;-73
2021/04/17 07:26:17;;;;;;;24.10;19.90;;;3.70;1.40;;;;;;645597;216;31597;-72
2021/04/17 07:28:58;;;;;;;23.52;20.73;;;3.70;1.40;;;;;;644785;219;31710;-73
2021/04/17 07:31:26;;;;;;;26.35;22.23;;;3.50;1.40;;;;;;651002;215;32163;-72
2021/04/17 07:35:52;;;;;;;28.80;23.65;;;3.80;1.40;;;5.86;84.24;95734.44;645626;212;31732;-74
2021/04/17 07:38:23;;;;;;;22.23;19.30;;;3.70;1.40;;;5.35;86.82;95734.30;641695;221;23615;-74
2021/04/17 07:41:03;;;;;;;25.53;19.27;;;3.60;1.40;;;5.66;87.36;95735.52;654236;216;24506;-73
2021/04/17 07:43:45;;;;;;;27.10;18.80;;;3.90;1.40;;;6.01;85.94;95730.14;655130;216;24545;-73
2021/04/17 07:46:14;;;;;;;23.40;18.10;;;4.00;1.40;;;5.65;86.86;95736.70;670432;211;24498;-73
2021/04/17 07:48:43;;;;;;;24.40;18.27;;;4.00;1.40;;;6.08;86.82;95736.66;670013;211;24420;-73
2021/04/17 07:51:12;;;;;;;25.00;19.67;;;4.20;1.40;;;6.15;85.81;95735.40;670255;211;24473;-73
2021/04/17 07:53:42;;;;;;;26.63;20.20;;;4.10;1.40;;;6.55;84.95;95734.07;669218;211;24435;-73
2021/04/17 07:56:22;;;;;;;22.03;18.33;;;4.60;1.40;;;6.24;86.67;95731.68;653302;216;24491;-72
2021/04/17 07:58:51;;;;;;;22.67;18.50;;;4.60;1.40;;;7.00;83.75;95733.96;651832;218;24511;-71
2021/04/17 08:03:55;;;;;;;25.88;21.62;;;5.00;1.40;;;6.66;81.95;95735.40;647236;212;31600;-71
2021/04/17 08:06:24;;;;;;;25.27;20.20;;;4.90;1.40;;;6.69;84.19;95728.81;640905;220;23477;-71
2021/04/17 08:08:53;;;;;;;24.20;18.60;;;4.90;1.40;;;7.73;81.64;95725.95;640414;221;27050;-71
2021/04/17 08:11:23;;;;;;;23.27;20.20;;;5.50;1.40;;;7.52;81.18;95725.88;640919;221;24694;-70
2021/04/17 08:13:52;;;;;;;24.07;18.50;;;5.70;1.40;;;7.09;80.56;95727.38;639562;220;24550;-70
2021/04/17 08:16:21;;;;;;;21.50;18.30;;;5.40;1.40;;;7.28;83.53;95722.09;635367;221;24547;-71
2021/04/17 08:18:50;;;;;;;19.80;17.50;;;5.40;1.40;;;7.90;80.66;95727.75;642411;219;24681;-71
2021/04/17 08:21:19;;;;;;;21.20;17.27;;;5.80;1.40;;;7.90;80.18;95730.39;655837;215;28750;-71
2021/04/17 08:23:48;;;;;;;20.20;17.77;;;5.60;1.40;;;8.23;77.86;95726.75;656654;215;29809;-71
2021/04/17 08:26:17;;;;;;;23.07;18.50;;;5.40;1.40;;;8.51;75.91;95724.23;655936;215;24561;-72
2021/04/17 08:28:46;;;;;;;21.97;16.67;;;5.60;1.40;;;8.68;74.73;95723.07;655168;215;24484;-71
2021/04/17 08:31:22;;;;;;;19.50;16.87;;;5.70;1.40;;;8.70;74.37;95718.83;655732;215;26614;-73
2021/04/17 08:35:51;;;;;;;23.48;21.08;;;5.60;1.40;;;8.61;76.04;95724.70;646520;212;31660;-72
2021/04/17 08:38:20;;;;;;;21.50;19.20;;;5.50;1.40;;;8.61;73.90;95717.95;641027;221;23508;-71
2021/04/17 08:43:27;;;;;;;20.83;18.62;;;5.20;1.40;;;8.38;76.19;95715.77;644968;212;31669;-71
2021/04/17 08:46:05;;;;;;;23.37;19.53;;;5.30;1.40;;;8.47;74.58;95715.57;642746;221;23486;-71
2021/04/17 08:48:43;;;;;;;17.63;15.67;;;5.70;1.40;;;-143.44;100.00;122422.95;639608;220;25964;-72
2021/04/17 08:51:31;;;;;;;18.20;16.30;;;5.80;1.40;;;-143.44;100.00;122422.95;640127;221;24546;-72
2021/04/17 08:54:16;;;;;;;16.30;14.60;;;6.50;1.40;;;-143.44;100.00;122422.95;654459;216;25638;-71
2021/04/17 08:56:49;;;;;;;17.47;15.60;;;6.50;1.40;;;-143.44;100.00;122422.95;655528;216;24552;-72
2021/04/17 08:59:20;;;;;;;16.70;14.90;;;6.40;1.40;;;-143.44;100.00;122422.95;667417;211;24688;-72
2021/04/17 09:01:49;;;;;;;18.50;15.00;;;6.50;1.40;;;-143.44;100.00;122422.95;655819;216;24469;-72
2021/04/17 09:06:52;;;;;;;17.62;15.93;;;6.80;1.40;;;;;;648064;216;31619;-72
2021/04/17 09:09:22;;;;;;;16.43;14.73;;;7.00;1.40;;;;;;639375;221;23519;-73
2021/04/17 09:11:51;;;;;;;15.53;13.97;;;6.70;1.40;;;;;;641486;220;24526;-72
2021/04/17 09:14:50;;;;;;;15.43;13.83;;;5.70;1.40;;;;;;640231;220;24535;-72
2021/04/17 09:20:03;;;;;;;16.48;14.40;;;6.20;1.40;;;;;;646205;212;31661;-72
2021/04/17 09:22:46;;;;;;;17.23;15.52;;;6.20;1.40;;;;;;636562;221;42546;-73
2021/04/17 09:25:15;;;;;;;15.35;13.85;;;6.10;1.40;;;;;;634218;220;32042;-74
2021/04/17 09:27:43;;;;;;;13.47;12.23;;;6.70;1.40;;;;;;639436;220;23464;-71
2021/04/17 09:30:13;;;;;;;14.82;13.23;;;7.30;1.40;;;;;;633971;221;31800;-74
2021/04/17 09:32:44;;;;;;;15.83;12.30;;;8.00;1.40;;;;;;640861;221;22467;-74
2021/04/17 09:35:51;;;;;;;13.57;12.27;;;7.70;1.40;;;-143.44;100.00;122422.95;646959;212;31889;-72
2021/04/17 09:38:22;;;;;;;13.37;11.97;;;7.60;1.40;;;-143.44;100.00;122422.95;641483;220;23501;-72
2021/04/17 09:40:49;;;;;;;12.23;9.43;;;8.00;1.40;;;-143.44;100.00;122422.95;641117;221;27730;-73
2021/04/17 09:43:25;;;;;;;10.50;9.60;;;8.60;1.40;;;-143.44;100.00;122422.95;635303;221;31857;-72
2021/04/17 09:45:54;;;;;;;12.03;10.70;;;7.60;1.40;;;-143.44;100.00;122422.95;639616;221;23471;-72
2021/04/17 09:48:23;;;;;;;9.40;8.50;;;7.70;1.40;;;-143.44;100.00;122422.95;641337;221;24515;-73
2021/04/17 09:50:56;;;;;;;8.40;7.60;;;7.70;1.40;;;-143.44;100.00;122422.95;639986;220;24717;-73
2021/04/17 09:53:24;;;;;;;9.87;8.97;;;8.20;1.40;;;-143.44;100.00;122422.95;640639;221;26632;-73
2021/04/17 09:55:55;;;;;;;10.43;9.35;;;7.60;1.40;;;-143.44;100.00;122422.95;635002;221;32183;-73
2021/04/17 09:58:25;;;;;;;8.83;8.03;;;8.00;1.40;;;-143.44;100.00;122422.95;640641;221;23927;-73
2021/04/17 10:00:55;;;;;;;9.33;8.53;;;8.60;1.40;;;-143.44;100.00;122422.95;653375;216;24901;-73
2021/04/17 10:03:26;;;;;;;9.60;8.70;;;9.00;1.40;;;-143.44;100.00;122422.95;668766;211;24434;-74
2021/04/17 10:05:56;;;;;;;10.37;9.47;;;8.80;1.40;;;-143.44;100.00;122422.95;667529;211;24418;-73
2021/04/17 10:08:31;;;;;;;10.37;8.60;;;8.80;1.40;;;-143.44;100.00;122422.95;667882;211;24416;-73
2021/04/17 10:11:00;;;;;;;10.25;9.25;;;8.20;1.40;;;-143.44;100.00;122422.95;661413;211;31467;-73
2021/04/17 10:13:38;;;;;;;10.23;9.27;;;8.60;1.40;;;-143.44;100.00;122422.95;667935;211;23404;-72
2021/04/17 10:16:07;;;;;;;10.37;9.47;;;8.30;1.40;;;-143.44;100.00;122422.95;668216;211;24459;-73
2021/04/17 10:18:36;;;;;;;9.70;8.80;;;8.40;1.40;;;-143.44;100.00;122422.95;670222;211;24415;-73
2021/04/17 10:21:05;;;;;;;9.77;8.88;;;8.40;1.40;;;-143.44;100.00;122422.95;635595;221;31730;-73
2021/04/17 10:23:34;;;;;;;10.27;9.32;;;8.10;1.40;;;-143.44;100.00;122422.95;651520;216;31558;-73
2021/04/17 10:26:06;;;;;;;9.93;9.02;;;7.90;1.40;;;-143.44;100.00;122422.95;662175;211;31426;-73
2021/04/17 10:28:35;;;;;;;9.85;8.90;;;8.10;1.40;;;-143.44;100.00;122422.95;662830;211;31589;-73
2021/04/17 10:31:13;;;;;;;9.17;8.23;;;7.90;1.40;;;-143.44;100.00;122422.95;652048;216;24125;-73
2021/04/17 10:35:51;;;;;;;10.23;9.23;;;7.30;1.40;;;10.46;58.21;95638.58;618951;226;32348;-72
2021/04/17 10:38:30;;;;;;;10.13;9.10;;;7.70;1.40;;;10.75;56.84;95638.82;616786;229;28061;-72
2021/04/17 10:40:59;;;;;;;8.73;7.83;;;7.80;1.40;;;10.06;56.65;95635.63;615807;230;24615;-71
2021/04/17 10:43:28;;;;;;;10.63;9.63;;;8.00;1.40;;;11.18;56.34;95628.58;615921;229;24598;-72
2021/04/17 10:45:57;;;;;;;9.53;8.67;;;8.30;1.40;;;10.77;55.00;95630.73;617285;229;28973;-73
2021/04/17 10:51:03;;;;;;;9.30;8.30;;;8.80;1.40;;;12.48;51.30;95625.87;647036;212;31601;-72
2021/04/17 10:53:33;;;;;;;9.50;8.70;;;10.40;1.40;;;11.80;52.28;95621.48;642263;220;23545;-73
2021/04/17 10:56:17;;;;;;;9.00;8.20;;;11.20;1.40;;;12.75;49.51;95625.44;640956;220;24551;-73
2021/04/17 10:58:47;;;;;;;9.30;8.40;;;10.90;1.40;;;16.12;45.90;95613.66;634579;220;31861;-72
2021/04/17 11:01:16;;;;;;;8.70;7.90;;;11.90;1.40;;;16.88;43.63;95616.03;641706;220;28773;-73
2021/04/17 11:03:45;;;;;;;8.53;7.73;;;12.80;1.40;;;16.38;42.03;95613.30;642451;219;28754;-72
2021/04/17 11:06:30;;;;;;;9.70;8.73;;;11.80;1.40;;;10.37;51.59;95613.78;642727;221;23516;-73
2021/04/17 11:09:06;;;;;;;9.00;8.20;;;8.90;1.40;;;14.35;50.98;95609.59;662697;211;31365;-72
2021/04/17 11:11:35;;;;;;;10.33;9.33;;;11.00;1.40;;;15.99;46.87;95603.77;668801;211;23452;-72
2021/04/17 11:14:04;;;;;;;9.07;8.07;;;12.60;1.40;;;15.48;44.01;95602.76;664092;211;31877;-73
2021/04/17 11:16:38;;;;;;;10.67;9.67;;;11.70;1.40;;;14.50;46.08;95598.79;651209;216;23500;-73
2021/04/17 11:19:22;;;;;;;10.10;9.10;;;10.60;1.40;;;13.40;47.61;95600.64;628210;224;23574;-73
2021/04/17 11:22:13;;;;;;;10.10;9.18;;;9.20;1.40;;;12.03;50.05;95601.44;647502;212;33849;-72
2021/04/17 11:24:43;;;;;;;11.60;10.60;;;8.80;1.40;;;11.48;52.95;95597.94;635648;220;31821;-73
2021/04/17 11:27:12;;;;;;;11.10;10.20;;;8.40;1.40;;;11.28;53.35;95595.47;649277;215;31767;-73